Time;durP1;ratioP1;P1;durP2;ratioP2;P2;SDS_P1;SDS_P2;PMS_P1;PMS_P2;Temp;Humidity;BMP_temperature;BMP_pressure;BME280_temperature;BME280_humidity;BME280_pressure;Samples;Min_cycle;Max_cycle;Signal;HPM_P1;HPM_P2
2022/11/10 14:33:53;;;;;;;2.80;0.80;;;;;;;;;;7415122;19;20870;-79
2022/11/10 14:36:18;;;;;;;3.28;1.00;;;;;;;;;;7428511;19;20046;-79
2022/11/10 14:38:43;;;;;;;1.20;0.80;;;;;;;;;;7414863;19;20474;-79
2022/11/10 14:41:18;;;;;;;1.00;0.57;;;;;;;;;;7435187;19;20034;-80
2022/11/10 14:43:58;;;;;;;1.08;0.45;;;;;;;;;;7434652;19;20366;-80
2022/11/10 14:46:24;;;;;;;0.68;0.38;;;;;;;;;;7431149;19;20098;-80
2022/11/10 14:48:55;;;;;;;1.27;0.40;;;;;;;;;;7426451;19;20010;-79
2022/11/10 14:51:21;;;;;;;3.15;0.73;;;;;;;;;;7430090;19;20010;-81
2022/11/10 14:53:48;;;;;;;2.03;0.30;;;;;;;;;;7426032;19;20477;-81
2022/11/10 14:56:25;;;;;;;0.20;0.20;;;;;;;;;;7433406;19;20021;-81
2022/11/10 14:58:51;;;;;;;2.75;0.40;;;;;;;;;;7427999;19;20030;-81
2022/11/10 15:01:27;;;;;;;1.80;0.43;;;;;;;;;;7429245;19;20005;-81
2022/11/10 15:03:54;;;;;;;1.55;0.30;;;;;;;;;;7427377;19;20002;-81
2022/11/10 15:06:20;;;;;;;0.63;0.20;;;;;;;;;;7427841;19;20018;-81
2022/11/10 15:08:46;;;;;;;0.30;0.17;;;;;;;;;;7423281;19;20068;-81
2022/11/10 15:11:32;;;;;;;1.17;0.50;;;;;;;;;;7427131;19;20442;-81
2022/11/10 15:13:58;;;;;;;5.00;0.75;;;;;;;;;;7434864;19;20118;-81
2022/11/10 15:16:29;;;;;;;2.53;0.70;;;;;;;;;;7435383;19;20750;-81
2022/11/10 15:19:15;;;;;;;1.95;0.20;;;;;;;;;;7424828;19;20034;-81
2022/11/10 15:21:40;;;;;;;0.98;0.60;;;;;;;;;;7428201;19;20063;-81
2022/11/10 15:24:06;;;;;;;4.22;0.50;;;;;;;;;;7425077;19;20018;-82
2022/11/10 15:26:38;;;;;;;2.30;0.50;;;;;;;;;;7428591;19;20334;-81
2022/11/10 15:29:03;;;;;;;1.65;0.70;;;;;;;;;;7428170;19;20010;-81
2022/11/10 15:31:31;;;;;;;4.65;0.52;;;;;;;;;;7426211;19;20010;-81
2022/11/10 15:34:01;;;;;;;1.40;0.40;;;;;;;;;;7428138;19;20003;-81
2022/11/10 15:36:30;;;;;;;0.77;0.40;;;;;;;;;;7421840;19;20027;-81
2022/11/10 15:39:14;;;;;;;0.90;0.32;;;;;;;;;;7424181;19;20006;-80
2022/11/10 15:41:47;;;;;;;1.13;0.32;;;;;;;;;;7425472;19;20363;-80
2022/11/10 15:44:23;;;;;;;1.10;0.30;;;;;;;;;;7398730;19;20013;-80
2022/11/10 15:46:54;;;;;;;1.95;0.50;;;;;;;;;;7393343;19;20343;-80
2022/11/10 15:49:25;;;;;;;1.05;0.20;;;;;;;;;;7394849;19;20021;-83
2022/11/10 15:51:51;;;;;;;1.00;0.43;;;;;;;;;;7395172;19;20018;-84
2022/11/10 15:54:21;;;;;;;0.45;0.20;;;;;;;;;;7393399;19;20108;-82
2022/11/10 15:56:46;;;;;;;0.40;0.30;;;;;;;;;;7395336;19;20014;-83
2022/11/10 15:59:12;;;;;;;2.38;0.50;;;;;;;;;;7394307;19;20006;-82
2022/11/10 16:01:38;;;;;;;2.00;0.47;;;;;;;;;;7393909;19;20052;-82
2022/11/10 16:04:03;;;;;;;1.85;0.40;;;;;;;;;;7392106;19;20007;-82
2022/11/10 16:06:29;;;;;;;0.38;0.28;;;;;;;;;;7393835;19;20010;-81
2022/11/10 16:08:55;;;;;;;0.28;0.25;;;;;;;;;;7393096;19;20030;-79
2022/11/10 16:11:22;;;;;;;1.35;0.57;;;;;;;;;;7353244;19;20023;-79
2022/11/10 16:13:49;;;;;;;2.08;0.60;;;;;;;;;;7392073;19;20006;-80
2022/11/10 16:16:16;;;;;;;0.80;0.30;;;;;;;;;;7394610;19;20103;-79
2022/11/10 16:18:42;;;;;;;0.85;0.50;;;;;;;;;;7391979;19;20523;-79
2022/11/10 16:21:14;;;;;;;2.13;0.43;;;;;;;;;;7395323;19;20335;-80
2022/11/10 16:23:41;;;;;;;1.05;0.47;;;;;;;;;;7395254;19;20110;-80
2022/11/10 16:26:08;;;;;;;2.33;0.50;;;;;;;;;;7394273;19;20054;-80
2022/11/10 16:28:33;;;;;;;0.45;0.45;;;;;;;;;;7394704;19;20470;-80
2022/11/10 16:30:59;;;;;;;1.50;0.52;;;;;;;;;;7391957;19;20010;-80
2022/11/10 16:33:26;;;;;;;1.42;0.50;;;;;;;;;;7389277;19;20052;-79
2022/11/10 16:35:53;;;;;;;0.40;0.40;;;;;;;;;;7394341;19;20054;-79
2022/11/10 16:38:25;;;;;;;2.17;0.55;;;;;;;;;;7391521;19;20478;-80
2022/11/10 16:40:57;;;;;;;1.70;1.00;;;;;;;;;;7395276;19;20502;-80
2022/11/10 16:43:24;;;;;;;2.80;0.95;;;;;;;;;;7393460;19;20490;-79
2022/11/10 16:45:53;;;;;;;80.18;29.60;;;;;;;;;;7395909;19;20003;-80
2022/11/10 16:48:22;;;;;;;127.10;40.13;;;;;;;;;;7390847;19;20427;-80
2022/11/10 16:50:51;;;;;;;88.50;30.27;;;;;;;;;;7394087;19;20664;-80
2022/11/10 16:53:19;;;;;;;24.92;10.68;;;;;;;;;;7390309;19;20042;-80
2022/11/10 16:55:45;;;;;;;20.90;8.48;;;;;;;;;;7391411;19;20070;-80
2022/11/10 16:58:10;;;;;;;27.25;10.82;;;;;;;;;;7392995;19;20085;-79
2022/11/10 17:00:37;;;;;;;26.02;10.88;;;;;;;;;;7393772;19;20006;-80
2022/11/10 17:03:04;;;;;;;14.88;5.22;;;;;;;;;;7391122;19;20483;-80
2022/11/10 17:05:30;;;;;;;10.20;3.78;;;;;;;;;;7393730;19;20031;-80
2022/11/10 17:07:57;;;;;;;13.93;5.80;;;;;;;;;;7390854;19;20010;-80
2022/11/10 17:10:23;;;;;;;7.68;3.20;;;;;;;;;;7394092;19;20021;-80
2022/11/10 17:12:49;;;;;;;4.18;2.10;;;;;;;;;;7390111;19;21800;-79
2022/11/10 17:15:15;;;;;;;3.42;1.30;;;;;;;;;;7392575;19;20003;-79
2022/11/10 17:17:44;;;;;;;1.52;1.00;;;;;;;;;;7388157;19;20010;-80
2022/11/10 17:20:17;;;;;;;24.00;8.80;;;;;;;;;;7394017;19;20006;-80
2022/11/10 17:22:42;;;;;;;11.73;4.65;;;;;;;;;;7395384;19;20087;-80
2022/11/10 17:25:22;;;;;;;11.80;4.32;;;;;;;;;;7386854;19;20114;-80
2022/11/10 17:27:47;;;;;;;11.75;4.47;;;;;;;;;;7389949;19;20010;-80
2022/11/10 17:30:13;;;;;;;10.57;4.65;;;;;;;;;;7391481;19;20521;-79
2022/11/10 17:32:39;;;;;;;7.32;2.95;;;;;;;;;;7391981;19;20006;-79
2022/11/10 17:35:05;;;;;;;5.93;1.83;;;;;;;;;;7389237;19;20014;-80
2022/11/10 17:37:30;;;;;;;3.13;1.63;;;;;;;;;;7392657;19;20031;-80
2022/11/10 17:39:56;;;;;;;1.48;1.17;;;;;;;;;;7390457;19;20419;-80
2022/11/10 17:42:22;;;;;;;4.70;1.60;;;;;;;;;;7392113;19;20038;-79
2022/11/10 17:44:47;;;;;;;3.70;1.95;;;;;;;;;;7392539;19;20076;-79
2022/11/10 17:47:12;;;;;;;2.67;1.33;;;;;;;;;;7359902;19;22259;-80
2022/11/10 17:49:38;;;;;;;3.80;1.10;;;;;;;;;;7389904;19;20003;-79
2022/11/10 17:52:03;;;;;;;3.50;1.73;;;;;;;;;;7391269;19;20074;-80
2022/11/10 17:54:29;;;;;;;2.72;1.52;;;;;;;;;;7390105;19;20020;-81
2022/11/10 17:56:54;;;;;;;2.88;1.50;;;;;;;;;;7389749;19;20014;-81
2022/11/10 17:59:19;;;;;;;3.17;1.42;;;;;;;;;;7393152;19;20095;-78
2022/11/10 18:01:45;;;;;;;4.32;1.02;;;;;;;;;;7394629;19;20006;-79
2022/11/10 18:04:12;;;;;;;4.30;1.40;;;;;;;;;;7383876;19;20003;-79
2022/11/10 18:06:37;;;;;;;5.97;1.70;;;;;;;;;;7385538;19;20003;-79
2022/11/10 18:09:03;;;;;;;3.03;0.98;;;;;;;;;;7392759;19;20404;-79
2022/11/10 18:11:28;;;;;;;1.40;0.63;;;;;;;;;;7391136;19;20013;-79
2022/11/10 18:13:53;;;;;;;0.90;0.70;;;;;;;;;;7393356;19;19999;-79
2022/11/10 18:16:19;;;;;;;1.23;0.90;;;;;;;;;;7399733;19;20323;-79
2022/11/10 18:18:44;;;;;;;7.13;2.42;;;;;;;;;;7395667;19;20006;-79
2022/11/10 18:21:10;;;;;;;5.85;2.80;;;;;;;;;;7395373;19;20024;-79
2022/11/10 18:23:36;;;;;;;5.60;2.40;;;;;;;;;;7401673;19;20009;-78
2022/11/10 18:26:03;;;;;;;3.05;1.80;;;;;;;;;;7394910;19;20022;-79
2022/11/10 18:28:29;;;;;;;2.58;1.35;;;;;;;;;;7391177;19;19998;-79
2022/11/10 18:30:54;;;;;;;2.13;1.60;;;;;;;;;;7396534;19;20006;-79
2022/11/10 18:33:19;;;;;;;5.05;1.88;;;;;;;;;;7392379;19;20014;-79
2022/11/10 18:35:44;;;;;;;4.57;1.63;;;;;;;;;;7392996;19;20015;-79
2022/11/10 18:38:12;;;;;;;4.57;1.75;;;;;;;;;;7392999;19;20399;-78
2022/11/10 18:40:37;;;;;;;1.63;1.23;;;;;;;;;;7396018;19;20011;-78
2022/11/10 18:43:03;;;;;;;4.68;1.70;;;;;;;;;;7399438;19;20034;-77
2022/11/10 18:45:28;;;;;;;3.70;2.00;;;;;;;;;;7397229;19;20017;-79
2022/11/10 18:47:59;;;;;;;6.07;2.60;;;;;;;;;;7390807;19;20013;-79
2022/11/10 18:50:28;;;;;;;6.00;2.80;;;;;;;;;;7397307;19;20042;-78
2022/11/10 18:52:53;;;;;;;4.15;2.40;;;;;;;;;;7390917;19;20006;-78
2022/11/10 18:55:19;;;;;;;6.57;2.30;;;;;;;;;;7390511;19;20107;-78
2022/11/10 18:57:44;;;;;;;5.95;2.28;;;;;;;;;;7390510;19;19995;-78
2022/11/10 19:00:11;;;;;;;5.82;2.42;;;;;;;;;;7385487;19;20036;-78
2022/11/10 19:02:36;;;;;;;5.90;2.92;;;;;;;;;;7389056;19;20044;-79
2022/11/10 19:05:01;;;;;;;4.78;2.55;;;;;;;;;;7382104;19;20010;-78
2022/11/10 19:07:28;;;;;;;9.23;2.65;;;;;;;;;;7387533;19;20443;-79
2022/11/10 19:09:53;;;;;;;6.65;2.30;;;;;;;;;;7388177;19;20023;-77
2022/11/10 19:12:18;;;;;;;4.82;2.58;;;;;;;;;;7387849;19;20010;-78
2022/11/10 19:14:44;;;;;;;4.43;2.72;;;;;;;;;;7385022;19;20013;-79
2022/11/10 19:17:09;;;;;;;8.82;3.50;;;;;;;;;;7381551;19;20021;-78
2022/11/10 19:19:34;;;;;;;12.88;5.05;;;;;;;;;;7391867;19;20006;-78
2022/11/10 19:21:59;;;;;;;10.43;4.15;;;;;;;;;;7393769;19;20022;-78
2022/11/10 19:24:25;;;;;;;9.32;3.97;;;;;;;;;;7396143;19;20066;-78
2022/11/10 19:26:51;;;;;;;5.53;3.05;;;;;;;;;;7391346;19;20818;-78
2022/11/10 19:29:17;;;;;;;6.50;3.70;;;;;;;;;;7393737;19;20007;-78
2022/11/10 19:31:44;;;;;;;8.52;3.38;;;;;;;;;;7394079;19;20394;-78
2022/11/10 19:34:09;;;;;;;5.97;3.25;;;;;;;;;;7391581;19;19999;-77
2022/11/10 19:36:35;;;;;;;6.78;3.78;;;;;;;;;;7393995;19;20053;-78
2022/11/10 19:39:00;;;;;;;5.30;2.80;;;;;;;;;;7396725;19;20015;-78
2022/11/10 19:41:28;;;;;;;5.05;2.83;;;;;;;;;;7396320;19;20369;-78
2022/11/10 19:43:54;;;;;;;4.80;2.42;;;;;;;;;;7389513;19;20027;-78
2022/11/10 19:46:26;;;;;;;2.95;2.15;;;;;;;;;;7394439;19;20018;-77
2022/11/10 19:48:53;;;;;;;3.83;2.15;;;;;;;;;;7391410;19;20014;-80
2022/11/10 19:51:21;;;;;;;4.47;2.67;;;;;;;;;;7394356;19;20007;-79
2022/11/10 19:53:48;;;;;;;6.93;2.78;;;;;;;;;;7390407;19;20111;-78
2022/11/10 19:56:24;;;;;;;5.78;2.92;;;;;;;;;;7391646;19;20022;-78
2022/11/10 19:58:50;;;;;;;9.70;3.00;;;;;;;;;;7390929;19;20003;-78
2022/11/10 20:01:17;;;;;;;5.90;2.92;;;;;;;;;;7393542;19;20010;-78
2022/11/10 20:03:43;;;;;;;5.95;2.95;;;;;;;;;;7394654;19;20046;-80
2022/11/10 20:06:19;;;;;;;3.20;2.13;;;;;;;;;;7394692;19;20466;-78
2022/11/10 20:08:45;;;;;;;4.85;1.90;;;;;;;;;;7390947;19;20043;-78
2022/11/10 20:11:13;;;;;;;4.90;1.85;;;;;;;;;;7392788;19;20019;-78
2022/11/10 20:13:39;;;;;;;3.90;1.75;;;;;;;;;;7392672;19;20358;-79
2022/11/10 20:16:07;;;;;;;3.60;1.63;;;;;;;;;;7394613;19;20007;-79
2022/11/10 20:18:36;;;;;;;2.72;1.70;;;;;;;;;;7390816;19;20003;-79
2022/11/10 20:21:08;;;;;;;2.00;1.38;;;;;;;;;;7390184;19;20107;-79
2022/11/10 20:23:33;;;;;;;3.25;1.85;;;;;;;;;;7386100;19;20039;-80
2022/11/10 20:26:14;;;;;;;2.90;1.38;;;;;;;;;;7389387;19;20011;-79
2022/11/10 20:28:41;;;;;;;3.70;1.92;;;;;;;;;;7383692;19;20009;-79
2022/11/10 20:31:09;;;;;;;3.47;2.30;;;;;;;;;;7392293;19;20023;-80
2022/11/10 20:33:35;;;;;;;3.58;2.00;;;;;;;;;;7387209;19;20086;-80
2022/11/10 20:36:13;;;;;;;2.90;2.10;;;;;;;;;;7391759;19;20424;-79
2022/11/10 20:38:38;;;;;;;6.60;2.20;;;;;;;;;;7389294;19;20040;-80
2022/11/10 20:41:11;;;;;;;4.30;1.80;;;;;;;;;;7393178;19;20014;-79
2022/11/10 20:43:37;;;;;;;5.88;1.50;;;;;;;;;;7390339;19;20559;-80
2022/11/10 20:46:04;;;;;;;3.58;2.10;;;;;;;;;;7395374;19;20417;-79
2022/11/10 20:48:31;;;;;;;2.90;1.65;;;;;;;;;;7395719;19;20015;-79
2022/11/10 20:50:56;;;;;;;2.00;1.67;;;;;;;;;;7404454;19;20005;-79
2022/11/10 20:53:22;;;;;;;3.25;1.58;;;;;;;;;;7422762;19;20007;-79
2022/11/10 20:55:47;;;;;;;2.60;1.48;;;;;;;;;;7410429;19;20010;-79
2022/11/10 20:58:12;;;;;;;2.33;1.50;;;;;;;;;;7389578;19;20126;-80
2022/11/10 21:00:42;;;;;;;1.55;1.23;;;;;;;;;;7393951;19;20458;-79
2022/11/10 21:03:07;;;;;;;2.92;1.30;;;;;;;;;;7390263;19;20099;-79
2022/11/10 21:05:32;;;;;;;2.13;1.40;;;;;;;;;;7385050;19;20459;-79
2022/11/10 21:07:58;;;;;;;2.00;1.38;;;;;;;;;;7382569;19;20074;-79
2022/11/10 21:10:23;;;;;;;3.15;1.50;;;;;;;;;;7389501;19;20066;-79
2022/11/10 21:12:48;;;;;;;1.60;1.40;;;;;;;;;;7391612;19;19998;-79
2022/11/10 21:15:15;;;;;;;1.70;1.30;;;;;;;;;;7393802;19;20021;-79
2022/11/10 21:17:40;;;;;;;2.45;1.33;;;;;;;;;;7394335;19;19999;-80
2022/11/10 21:20:06;;;;;;;5.18;1.33;;;;;;;;;;7389630;19;20021;-80
2022/11/10 21:22:32;;;;;;;2.47;1.83;;;;;;;;;;7391566;19;20003;-80
2022/11/10 21:32:05;;;;;;;1.23;1.10;;;;;;;;;;7406449;19;19998;-89
2022/11/10 21:34:39;;;;;;;;;;;;;;;;;;;;;
2022/11/10 21:37:37;;;;;;;2.00;1.33;;;;;;;;;;7380612;19;20002;-90
2022/11/10 21:47:17;;;;;;;2.58;1.60;;;;;;;;;;7390727;19;20010;-90
2022/11/10 21:53:48;;;;;;;5.13;1.92;;;;;;;;;;7389902;19;20035;-88
2022/11/10 21:56:24;;;;;;;;;;;;;;;;;;;;;
2022/11/10 21:59:21;;;;;;;;;;;;;;;;;;;;;
2022/11/10 22:01:56;;;;;;;6.22;2.20;;;;;;;;;;7416708;19;20014;-89
